createdAt,value
2022-09-11T00:01:18.341Z,100293.63
2022-09-11T00:03:48.458Z,100294.97
2022-09-11T00:06:28.856Z,100298.44
2022-09-11T00:09:00.978Z,100298.34
2022-09-11T00:11:31.545Z,100308.09
2022-09-11T00:14:00.253Z,100304.63
2022-09-11T00:16:30.601Z,100304.91
2022-09-11T00:19:00.524Z,100303.13
2022-09-11T00:21:29.458Z,100313.63
2022-09-11T00:23:59.778Z,100319.53
2022-09-11T00:26:28.648Z,100318.03
2022-09-11T00:28:57.276Z,100314.28
2022-09-11T00:31:27.989Z,100316.59
2022-09-11T00:33:56.433Z,100324.13
2022-09-11T00:36:26.375Z,100327.94
2022-09-11T00:38:54.931Z,100323.84
2022-09-11T00:41:27.439Z,100319.66
2022-09-11T00:44:02.300Z,100331.72
2022-09-11T00:46:38.314Z,100326.97
2022-09-11T00:49:17.266Z,100330.34
2022-09-11T00:51:49.326Z,100334.25
2022-09-11T00:54:24.320Z,100327.09
2022-09-11T00:56:54.482Z,100339.84
2022-09-11T00:59:27.205Z,100342.00
2022-09-11T01:01:55.649Z,100335.44
2022-09-11T01:04:24.413Z,100337.09
2022-09-11T01:06:56.481Z,100341.81
2022-09-11T01:09:24.853Z,100342.47
2022-09-11T01:12:00.917Z,100338.69
2022-09-11T01:14:41.757Z,100340.44
2022-09-11T01:17:22.577Z,100345.59
2022-09-11T01:20:22.470Z,100355.25
2022-09-11T01:23:04.890Z,100348.94
2022-09-11T01:25:50.081Z,100354.31
2022-09-11T01:28:23.078Z,100360.38
2022-09-11T01:30:59.199Z,100359.56
2022-09-11T01:33:32.945Z,100362.19
2022-09-11T01:36:07.341Z,100353.34
2022-09-11T01:38:40.040Z,100356.44
2022-09-11T01:41:14.311Z,100356.59
2022-09-11T01:43:51.364Z,100354.81
2022-09-11T01:46:23.997Z,100364.19
2022-09-11T01:49:02.978Z,100365.97
2022-09-11T01:51:33.746Z,100358.00
2022-09-11T01:54:05.119Z,100360.22
2022-09-11T01:56:37.238Z,100363.25
2022-09-11T01:59:10.303Z,100356.72
2022-09-11T02:01:42.836Z,100351.69
2022-09-11T02:04:15.164Z,100355.59
2022-09-11T02:06:47.728Z,100355.38
2022-09-11T02:09:22.818Z,100346.34
2022-09-11T02:11:55.089Z,100361.56
2022-09-11T02:14:30.338Z,100356.44
2022-09-11T02:17:05.107Z,100354.31
2022-09-11T02:19:33.232Z,100363.00
2022-09-11T02:22:01.202Z,100363.97
2022-09-11T02:24:29.581Z,100370.34
2022-09-11T02:27:03.874Z,100370.72
2022-09-11T02:29:35.195Z,100375.25
2022-09-11T02:32:05.202Z,100372.34
2022-09-11T02:34:35.386Z,100370.44
2022-09-11T02:37:16.955Z,100367.81
2022-09-11T02:40:17.349Z,100375.19
2022-09-11T02:43:00.350Z,100387.38
2022-09-11T02:45:41.801Z,100387.38
2022-09-11T02:48:26.200Z,100398.50
2022-09-11T02:51:02.210Z,100391.06
2022-09-11T02:53:36.656Z,100391.78
2022-09-11T02:56:10.032Z,100399.94
2022-09-11T02:58:44.542Z,100399.84
2022-09-11T03:01:13.975Z,100398.16
2022-09-11T03:03:46.036Z,100407.09
2022-09-11T03:06:18.077Z,100402.13
2022-09-11T03:08:47.196Z,100395.19
2022-09-11T03:11:17.611Z,100405.69
2022-09-11T03:13:47.677Z,100404.56
2022-09-11T03:16:19.121Z,100404.00
2022-09-11T03:18:47.306Z,100402.00
2022-09-11T03:21:16.900Z,100404.75
2022-09-11T03:23:44.925Z,100402.69
2022-09-11T03:26:12.775Z,100406.81
2022-09-11T03:28:40.957Z,100408.50
2022-09-11T03:31:10.048Z,100408.09
2022-09-11T03:33:40.081Z,100414.69
2022-09-11T03:36:11.219Z,100412.78
2022-09-11T03:38:39.405Z,100417.88
2022-09-11T03:41:09.233Z,100416.69
2022-09-11T03:43:37.689Z,100422.34
2022-09-11T03:46:06.944Z,100423.72
2022-09-11T03:48:37.935Z,100421.19
2022-09-11T03:51:07.441Z,100428.53
2022-09-11T03:53:35.503Z,100423.06
2022-09-11T03:56:06.442Z,100434.22
2022-09-11T03:58:40.786Z,100431.91
2022-09-11T04:01:10.782Z,100438.72
2022-09-11T04:03:38.795Z,100442.00
2022-09-11T04:06:10.053Z,100445.56
2022-09-11T04:08:41.246Z,100442.78
2022-09-11T04:11:12.531Z,100449.25
2022-09-11T04:13:43.770Z,100447.94
2022-09-11T04:16:16.906Z,100453.06
2022-09-11T04:18:48.893Z,100451.78
2022-09-11T04:21:19.353Z,100453.84
2022-09-11T04:23:54.330Z,100453.22
2022-09-11T04:26:24.822Z,100455.84
2022-09-11T04:28:57.175Z,100455.38
2022-09-11T04:31:26.363Z,100451.63
2022-09-11T04:33:57.895Z,100452.47
2022-09-11T04:36:30.797Z,100456.75
2022-09-11T04:39:00.494Z,100452.19
2022-09-11T04:41:29.737Z,100450.91
2022-09-11T04:44:05.203Z,100453.34
2022-09-11T04:46:37.105Z,100451.84
2022-09-11T04:49:10.761Z,100457.16
2022-09-11T04:51:41.650Z,100463.38
2022-09-11T04:54:15.191Z,100474.72
2022-09-11T04:56:43.106Z,100467.19
2022-09-11T04:59:15.847Z,100475.84
2022-09-11T05:01:48.873Z,100482.28
2022-09-11T05:04:21.786Z,100484.25
2022-09-11T05:06:53.663Z,100486.31
2022-09-11T05:09:21.851Z,100496.06
2022-09-11T05:11:50.822Z,100489.97
2022-09-11T05:14:19.202Z,100487.25
2022-09-11T05:16:50.117Z,100502.13
2022-09-11T05:19:20.452Z,100498.69
2022-09-11T05:21:48.557Z,100493.34
2022-09-11T05:24:19.020Z,100493.44
2022-09-11T05:26:47.944Z,100509.72
2022-09-11T05:29:17.342Z,100501.69
2022-09-11T05:31:53.248Z,100503.91
2022-09-11T05:34:22.214Z,100505.22
2022-09-11T05:36:52.253Z,100513.84
2022-09-11T05:39:22.050Z,100515.44
2022-09-11T05:41:52.139Z,100524.81
2022-09-11T05:44:20.820Z,100524.34
2022-09-11T05:46:49.537Z,100522.75
2022-09-11T05:49:17.603Z,100526.03
2022-09-11T05:51:45.982Z,100534.66
2022-09-11T05:54:13.821Z,100529.03
2022-09-11T05:56:43.399Z,100533.78
2022-09-11T05:59:18.291Z,100533.22
2022-09-11T06:01:50.318Z,100533.22
2022-09-11T06:04:28.066Z,100540.09
2022-09-11T06:06:58.411Z,100545.34
2022-09-11T06:09:28.092Z,100549.19
2022-09-11T06:11:57.398Z,100555.91
2022-09-11T06:14:25.482Z,100558.22
2022-09-11T06:16:56.975Z,100564.88
2022-09-11T06:19:26.421Z,100556.66
2022-09-11T06:21:54.421Z,100563.69
2022-09-11T06:24:29.466Z,100569.84
2022-09-11T06:27:00.789Z,100564.22
2022-09-11T06:29:32.529Z,100571.81
2022-09-11T06:32:01.797Z,100571.13
2022-09-11T06:34:31.860Z,100571.38
2022-09-11T06:37:03.667Z,100569.75
2022-09-11T06:39:34.214Z,100575.91
2022-09-11T06:42:03.459Z,100577.72
2022-09-11T06:44:36.330Z,100575.22
2022-09-11T06:47:05.608Z,100578.94
2022-09-11T06:49:35.776Z,100579.19
2022-09-11T06:52:28.082Z,100581.16
2022-09-11T06:55:13.374Z,100575.91
2022-09-11T06:57:47.121Z,100574.34
2022-09-11T07:00:19.139Z,100576.13
2022-09-11T07:02:48.222Z,100579.50
2022-09-11T07:05:16.303Z,100572.56
2022-09-11T07:07:48.507Z,100577.19
2022-09-11T07:10:17.552Z,100590.88
2022-09-11T07:12:54.314Z,100582.66
2022-09-11T07:15:22.920Z,100578.84
2022-09-11T07:17:51.326Z,100579.06
2022-09-11T07:20:20.990Z,100581.88
2022-09-11T07:22:48.879Z,100578.97
2022-09-11T07:25:18.368Z,100584.72
2022-09-11T07:27:47.701Z,100582.28
2022-09-11T07:30:18.343Z,100583.75
2022-09-11T07:32:50.234Z,100583.97
2022-09-11T07:35:21.716Z,100594.19
2022-09-11T07:37:52.838Z,100595.69
2022-09-11T07:40:25.505Z,100593.75
2022-09-11T07:42:54.470Z,100596.28
2022-09-11T07:45:24.451Z,100592.72
2022-09-11T07:47:53.857Z,100602.94
2022-09-11T07:50:24.276Z,100600.81
2022-09-11T07:52:52.452Z,100608.66
2022-09-11T07:55:21.447Z,100611.41
2022-09-11T07:57:52.200Z,100613.75
2022-09-11T08:00:21.368Z,100620.78
2022-09-11T08:02:50.651Z,100613.66
2022-09-11T08:05:28.862Z,100617.84
2022-09-11T08:08:00.145Z,100618.19
2022-09-11T08:10:30.604Z,100622.34
2022-09-11T08:13:00.244Z,100619.31
2022-09-11T08:15:33.335Z,100622.19
2022-09-11T08:18:04.538Z,100617.31
2022-09-11T08:20:33.397Z,100617.34
2022-09-11T08:23:01.996Z,100610.47
2022-09-11T08:25:31.223Z,100624.50
2022-09-11T08:28:01.974Z,100621.97
2022-09-11T08:30:30.045Z,100631.53
2022-09-11T08:32:58.508Z,100620.69
2022-09-11T08:35:29.165Z,100623.06
2022-09-11T08:37:57.082Z,100622.97
2022-09-11T08:40:26.309Z,100632.00
2022-09-11T08:43:02.344Z,100625.47
2022-09-11T08:45:36.147Z,100626.63
2022-09-11T08:48:09.243Z,100632.00
2022-09-11T08:50:42.153Z,100635.53
2022-09-11T08:53:16.258Z,100640.38
2022-09-11T08:55:48.750Z,100643.38
2022-09-11T08:58:29.052Z,100645.88
2022-09-11T09:01:09.507Z,100646.28
2022-09-11T09:04:00.971Z,100647.53
2022-09-11T09:06:47.269Z,100642.44
2022-09-11T09:09:26.047Z,100641.44
2022-09-11T09:12:05.120Z,100650.50
2022-09-11T09:14:52.936Z,100644.91
2022-09-11T09:17:25.850Z,100639.50
2022-09-11T09:20:05.701Z,100654.47
2022-09-11T09:22:44.745Z,100658.19
2022-09-11T09:25:15.478Z,100653.22
2022-09-11T09:27:48.465Z,100659.47
2022-09-11T09:30:18.644Z,100652.38
2022-09-11T09:32:53.107Z,100657.91
2022-09-11T09:35:27.120Z,100659.44
2022-09-11T09:37:57.125Z,100656.63
2022-09-11T09:40:27.123Z,100647.47
2022-09-11T09:43:19.338Z,100650.00
2022-09-11T09:46:00.263Z,100654.03
2022-09-11T09:48:32.438Z,100659.94
2022-09-11T09:51:02.233Z,100663.50
2022-09-11T09:53:40.779Z,100661.47
2022-09-11T09:56:11.565Z,100663.97
2022-09-11T09:58:49.246Z,100659.72
2022-09-11T10:01:45.829Z,100657.63
2022-09-11T10:04:17.495Z,100650.97
2022-09-11T10:06:47.724Z,100652.13
2022-09-11T10:09:28.648Z,100652.72
2022-09-11T10:12:01.834Z,100655.88
2022-09-11T10:14:53.062Z,100651.81
2022-09-11T10:17:25.329Z,100650.34
2022-09-11T10:19:56.953Z,100642.75
2022-09-11T10:22:29.062Z,100637.19
2022-09-11T10:25:12.782Z,100645.13
2022-09-11T10:27:47.042Z,100644.09
2022-09-11T10:30:31.466Z,100647.13
2022-09-11T10:33:03.735Z,100644.66
2022-09-11T10:35:35.528Z,100651.03
2022-09-11T10:38:19.276Z,100647.69
2022-09-11T10:41:10.500Z,100639.91
2022-09-11T10:43:47.578Z,100637.16
2022-09-11T10:46:28.793Z,100632.91
2022-09-11T10:48:58.808Z,100643.94
2022-09-11T10:51:29.884Z,100645.16
2022-09-11T10:54:21.534Z,100639.78
2022-09-11T10:57:05.376Z,100637.75
2022-09-11T10:59:45.809Z,100635.56
2022-09-11T11:02:21.631Z,100632.19
2022-09-11T11:04:49.924Z,100621.31
2022-09-11T11:07:36.239Z,100633.06
2022-09-11T11:10:21.643Z,100638.53
2022-09-11T11:13:05.147Z,100630.59
2022-09-11T11:15:46.093Z,100638.69
2022-09-11T11:18:35.106Z,100635.97
2022-09-11T11:21:15.110Z,100630.34
2022-09-11T11:24:01.292Z,100630.06
2022-09-11T11:26:53.529Z,100642.09
2022-09-11T11:29:56.204Z,100637.22
2022-09-11T11:32:44.197Z,100629.94
2022-09-11T11:35:21.865Z,100626.81
2022-09-11T11:37:53.996Z,100627.75
2022-09-11T11:40:29.914Z,100631.50
2022-09-11T11:43:02.158Z,100624.34
2022-09-11T11:45:38.150Z,100619.16
2022-09-11T11:48:13.465Z,100621.34
2022-09-11T11:50:45.075Z,100620.44
2022-09-11T11:53:21.276Z,100630.53
2022-09-11T11:56:03.792Z,100623.06
2022-09-11T11:58:47.045Z,100617.22
2022-09-11T12:01:23.214Z,100622.38
2022-09-11T12:03:56.555Z,100618.00
2022-09-11T12:06:24.441Z,100626.69
2022-09-11T12:08:52.710Z,100618.03
2022-09-11T12:11:29.792Z,100612.75
2022-09-11T12:13:59.549Z,100614.81
2022-09-11T12:16:32.239Z,100624.03
2022-09-11T12:19:19.659Z,100614.06
2022-09-11T12:22:12.268Z,100615.28
2022-09-11T12:24:58.814Z,100622.88
2022-09-11T12:28:09.434Z,100617.88
2022-09-11T12:30:56.644Z,100615.97
2022-09-11T12:33:56.981Z,100624.19
2022-09-11T12:36:51.109Z,100624.69
2022-09-11T12:39:27.535Z,100627.97
2022-09-11T12:42:34.641Z,100634.44
2022-09-11T12:45:04.188Z,100627.31
2022-09-11T12:47:36.370Z,100625.88
2022-09-11T12:50:18.422Z,100615.63
2022-09-11T12:52:51.926Z,100618.63
2022-09-11T12:55:33.145Z,100619.47
2022-09-11T12:58:06.683Z,100616.06
2022-09-11T13:00:38.368Z,100620.47
2022-09-11T13:03:14.067Z,100613.28
2022-09-11T13:05:45.386Z,100612.78
2022-09-11T13:08:18.412Z,100605.91
2022-09-11T13:10:47.717Z,100600.78
2022-09-11T13:13:43.367Z,100601.41
2022-09-11T13:16:24.256Z,100603.34
2022-09-11T13:18:53.908Z,100598.16
2022-09-11T13:21:26.387Z,100592.88
2022-09-11T13:23:55.005Z,100595.97
2022-09-11T13:26:30.258Z,100593.31
2022-09-11T13:29:00.851Z,100593.59
2022-09-11T13:31:35.615Z,100589.44
2022-09-11T13:34:07.551Z,100589.06
2022-09-11T13:36:37.952Z,100587.97
2022-09-11T13:39:07.651Z,100580.09
2022-09-11T13:41:39.498Z,100585.44
2022-09-11T13:44:12.620Z,100584.34
2022-09-11T13:46:56.412Z,100579.19
2022-09-11T13:49:36.245Z,100574.69
2022-09-11T13:52:07.839Z,100572.72
2022-09-11T13:54:38.696Z,100583.38
2022-09-11T13:57:16.691Z,100572.72
2022-09-11T13:59:56.798Z,100575.44
2022-09-11T14:02:49.969Z,100574.09
2022-09-11T14:05:21.918Z,100564.16
2022-09-11T14:07:59.232Z,100555.88
2022-09-11T14:10:31.167Z,100559.16
2022-09-11T14:13:10.588Z,100555.63
2022-09-11T14:15:42.629Z,100557.28
2022-09-11T14:18:20.458Z,100554.25
2022-09-11T14:20:48.634Z,100556.06
2022-09-11T14:23:24.200Z,100540.59
2022-09-11T14:26:19.735Z,100533.53
2022-09-11T14:29:05.145Z,100532.06
2022-09-11T14:31:38.279Z,100525.47
2022-09-11T14:34:15.776Z,100527.75
2022-09-11T14:36:46.954Z,100527.94
2022-09-11T14:39:24.829Z,100527.97
2022-09-11T14:41:55.091Z,100513.69
2022-09-11T14:44:26.236Z,100518.56
2022-09-11T14:46:57.696Z,100510.69
2022-09-11T14:49:25.765Z,100526.06
2022-09-11T14:51:58.191Z,100523.59
2022-09-11T14:54:31.058Z,100515.31
2022-09-11T14:56:59.640Z,100526.59
2022-09-11T14:59:29.056Z,100531.84
2022-09-11T15:01:58.698Z,100533.34
2022-09-11T15:04:27.351Z,100528.41
2022-09-11T15:07:00.143Z,100533.59
2022-09-11T15:09:31.041Z,100530.00
2022-09-11T15:11:59.113Z,100529.38
2022-09-11T15:14:54.378Z,100524.72
2022-09-11T15:17:17.856Z,100524.72
2022-09-11T15:19:47.189Z,100524.97
2022-09-11T15:22:15.088Z,100517.78
2022-09-11T15:24:44.605Z,100520.16
2022-09-11T15:27:12.489Z,100512.13
2022-09-11T15:29:42.679Z,100521.50
2022-09-11T15:32:11.351Z,100517.19
2022-09-11T15:34:40.454Z,100519.38
2022-09-11T15:37:08.337Z,100519.63
2022-09-11T15:39:36.299Z,100516.88
2022-09-11T15:42:07.556Z,100516.38
2022-09-11T15:44:37.536Z,100517.94
2022-09-11T15:47:09.134Z,100518.78
2022-09-11T15:49:41.445Z,100517.09
2022-09-11T15:52:09.694Z,100511.06
2022-09-11T15:54:38.229Z,100513.28
2022-09-11T15:57:07.551Z,100506.69
2022-09-11T15:59:35.467Z,100500.25
2022-09-11T16:02:03.333Z,100505.34
2022-09-11T16:04:32.410Z,100501.72
2022-09-11T16:07:00.329Z,100496.56
2022-09-11T16:09:31.442Z,100492.50
2022-09-11T16:12:01.681Z,100504.31
2022-09-11T16:14:34.069Z,100496.38
2022-09-11T16:17:03.590Z,100498.44
2022-09-11T16:19:32.097Z,100500.44
2022-09-11T16:22:02.531Z,100499.91
2022-09-11T16:24:32.774Z,100496.44
2022-09-11T16:27:01.589Z,100504.50
2022-09-11T16:29:56.623Z,100503.53
2022-09-11T16:32:28.440Z,100503.78
2022-09-11T16:34:57.572Z,100501.63
2022-09-11T16:37:26.015Z,100500.31
2022-09-11T16:39:54.126Z,100497.81
2022-09-11T16:42:22.704Z,100503.66
2022-09-11T16:44:53.628Z,100504.31
2022-09-11T16:47:22.009Z,100497.38
2022-09-11T16:50:06.423Z,100500.53
2022-09-11T16:52:35.706Z,100498.16
2022-09-11T16:55:04.802Z,100508.72
2022-09-11T16:57:33.273Z,100505.59
2022-09-11T17:00:03.393Z,100510.19
2022-09-11T17:02:31.623Z,100498.41
2022-09-11T17:05:00.383Z,100508.75
2022-09-11T17:07:28.193Z,100507.31
2022-09-11T17:09:56.077Z,100508.78
2022-09-11T17:12:24.810Z,100500.88
2022-09-11T17:14:52.982Z,100504.22
2022-09-11T17:17:26.455Z,100505.66
2022-09-11T17:19:57.057Z,100504.31
2022-09-11T17:22:25.230Z,100500.34
2022-09-11T17:24:53.618Z,100503.66
2022-09-11T17:27:21.443Z,100503.53
2022-09-11T17:29:49.228Z,100502.81
2022-09-11T17:32:29.221Z,100502.41
2022-09-11T17:34:59.831Z,100501.91
2022-09-11T17:37:28.148Z,100500.47
2022-09-11T17:39:56.176Z,100497.13
2022-09-11T17:42:24.542Z,100500.94
2022-09-11T17:44:52.504Z,100503.06
2022-09-11T17:47:20.562Z,100509.66
2022-09-11T17:49:49.936Z,100503.03
2022-09-11T17:52:20.481Z,100500.06
2022-09-11T17:54:49.004Z,100505.06
2022-09-11T17:57:17.131Z,100505.84
2022-09-11T17:59:50.226Z,100500.09
2022-09-11T18:02:19.832Z,100503.16
2022-09-11T18:04:48.063Z,100503.31
2022-09-11T18:07:16.682Z,100497.19
2022-09-11T18:09:46.971Z,100499.06
2022-09-11T18:12:15.235Z,100501.22
2022-09-11T18:14:43.889Z,100511.88
2022-09-11T18:17:11.887Z,100517.38
2022-09-11T18:19:39.748Z,100518.50
2022-09-11T18:22:09.815Z,100510.66
2022-09-11T18:24:39.751Z,100514.47
2022-09-11T18:27:11.641Z,100524.91
2022-09-11T18:29:40.657Z,100526.19
2022-09-11T18:32:10.176Z,100523.66
2022-09-11T18:34:42.368Z,100518.50
2022-09-11T18:37:11.357Z,100528.44
2022-09-11T18:39:39.344Z,100524.81
2022-09-11T18:42:07.497Z,100522.41
2022-09-11T18:44:36.824Z,100514.72
2022-09-11T18:47:04.931Z,100519.78
2022-09-11T18:49:34.735Z,100524.97
2022-09-11T18:52:03.252Z,100520.94
2022-09-11T18:54:31.537Z,100510.94
2022-09-11T18:57:00.260Z,100515.91
2022-09-11T18:59:28.293Z,100526.53
2022-09-11T19:02:00.265Z,100529.28
2022-09-11T19:04:30.487Z,100534.34
2022-09-11T19:07:00.190Z,100528.75
2022-09-11T19:09:29.337Z,100532.34
2022-09-11T19:12:00.301Z,100529.69
2022-09-11T19:14:28.456Z,100536.75
2022-09-11T19:16:57.944Z,100538.56
2022-09-11T19:19:25.847Z,100541.28
2022-09-11T19:21:54.352Z,100538.88
2022-09-11T19:24:23.621Z,100535.72
2022-09-11T19:26:52.800Z,100534.88
2022-09-11T19:29:21.271Z,100547.31
2022-09-11T19:31:49.202Z,100540.22
2022-09-11T19:34:18.400Z,100534.03
2022-09-11T19:36:46.544Z,100541.69
2022-09-11T19:39:14.392Z,100535.50
2022-09-11T19:41:42.655Z,100535.50
2022-09-11T19:44:15.208Z,100535.94
2022-09-11T19:46:46.046Z,100534.03
2022-09-11T19:49:15.645Z,100538.88
2022-09-11T19:51:44.964Z,100545.63
2022-09-11T19:54:15.346Z,100551.56
2022-09-11T19:56:44.286Z,100554.41
2022-09-11T19:59:14.249Z,100556.72
2022-09-11T20:01:42.077Z,100544.41
2022-09-11T20:04:11.396Z,100547.50
2022-09-11T20:06:40.121Z,100549.94
2022-09-11T20:11:58.051Z,100554.00
2022-09-11T20:14:26.281Z,100550.59
2022-09-11T20:16:54.533Z,100545.84
2022-09-11T20:19:22.652Z,100543.09
2022-09-11T20:21:50.478Z,100551.91
2022-09-11T20:24:20.876Z,100549.41
2022-09-11T20:26:48.998Z,100543.72
2022-09-11T20:29:17.055Z,100552.13
2022-09-11T20:31:48.164Z,100553.13
2022-09-11T20:34:16.879Z,100548.63
2022-09-11T20:36:44.702Z,100543.28
2022-09-11T20:39:13.910Z,100546.53
2022-09-11T20:41:43.923Z,100545.97
2022-09-11T20:44:12.475Z,100538.81
2022-09-11T20:46:40.506Z,100537.31
2022-09-11T20:49:09.417Z,100541.84
2022-09-11T20:51:38.409Z,100537.88
2022-09-11T20:54:06.443Z,100542.72
2022-09-11T20:56:34.620Z,100540.19
2022-09-11T20:59:03.802Z,100541.09
2022-09-11T21:01:33.821Z,100539.88
2022-09-11T21:04:04.142Z,100536.31
2022-09-11T21:06:33.536Z,100535.69
2022-09-11T21:09:04.655Z,100534.34
2022-09-11T21:11:32.590Z,100534.97
2022-09-11T21:14:03.400Z,100530.78
2022-09-11T21:16:31.843Z,100527.31
2022-09-11T21:19:02.811Z,100527.59
2022-09-11T21:21:31.698Z,100530.22
2022-09-11T21:24:02.331Z,100534.63
2022-09-11T21:26:31.320Z,100544.28
2022-09-11T21:29:00.337Z,100536.31
2022-09-11T21:31:30.249Z,100531.91
2022-09-11T21:33:58.352Z,100524.97
2022-09-11T21:36:26.890Z,100527.81
2022-09-11T21:38:54.756Z,100530.06
2022-09-11T21:41:22.602Z,100530.13
2022-09-11T21:43:52.735Z,100532.69
2022-09-11T21:46:21.099Z,100531.41
2022-09-11T21:48:50.492Z,100533.31
2022-09-11T21:51:20.128Z,100522.25
2022-09-11T21:53:49.030Z,100526.19
2022-09-11T21:56:19.285Z,100521.31
2022-09-11T21:58:47.115Z,100528.66
2022-09-11T22:01:15.278Z,100527.97
2022-09-11T22:03:43.359Z,100517.13
2022-09-11T22:06:13.366Z,100520.94
2022-09-11T22:08:43.087Z,100520.94
2022-09-11T22:11:12.071Z,100511.78
2022-09-11T22:13:40.738Z,100514.41
2022-09-11T22:16:11.992Z,100516.91
2022-09-11T22:18:41.488Z,100511.22
2022-09-11T22:21:10.950Z,100514.31
2022-09-11T22:23:40.378Z,100512.81
2022-09-11T22:26:11.394Z,100506.66
2022-09-11T22:28:40.597Z,100512.09
2022-09-11T22:31:09.118Z,100510.00
2022-09-11T22:33:37.985Z,100511.50
2022-09-11T22:36:11.490Z,100498.88
2022-09-11T22:38:41.382Z,100503.28
2022-09-11T22:41:09.749Z,100511.22
2022-09-11T22:43:37.739Z,100513.78
2022-09-11T22:46:06.483Z,100512.13
2022-09-11T22:48:34.954Z,100509.88
2022-09-11T22:51:03.075Z,100512.72
2022-09-11T22:53:31.302Z,100509.91
2022-09-11T22:56:01.361Z,100520.31
2022-09-11T22:58:30.537Z,100512.81
2022-09-11T23:00:59.734Z,100512.72
2022-09-11T23:03:27.912Z,100512.91
2022-09-11T23:06:14.050Z,100521.72
2022-09-11T23:08:41.911Z,100519.75
2022-09-11T23:11:11.455Z,100507.94
2022-09-11T23:13:39.407Z,100506.63
2022-09-11T23:16:13.511Z,100503.81
2022-09-11T23:18:42.262Z,100510.00
2022-09-11T23:21:10.721Z,100505.19
2022-09-11T23:23:42.275Z,100508.19
2022-09-11T23:26:13.366Z,100506.22
2022-09-11T23:28:41.797Z,100499.00
2022-09-11T23:31:14.360Z,100509.31
2022-09-11T23:33:42.686Z,100510.78
2022-09-11T23:36:13.285Z,100512.59
2022-09-11T23:38:42.056Z,100503.16
2022-09-11T23:41:12.044Z,100496.34
2022-09-11T23:43:40.225Z,100496.34
2022-09-11T23:46:08.450Z,100493.13
2022-09-11T23:48:36.590Z,100493.13
2022-09-11T23:51:05.432Z,100489.84
2022-09-11T23:53:33.482Z,100488.63
2022-09-11T23:56:01.601Z,100492.53
2022-09-11T23:58:30.806Z,100485.91
